Time;durP1;ratioP1;P1;durP2;ratioP2;P2;SDS_P1;SDS_P2;PMS_P1;PMS_P2;Temp;Humidity;BMP_temperature;BMP_pressure;BME280_temperature;BME280_humidity;BME280_pressure;Samples;Min_cycle;Max_cycle;Signal;HPM_P1;HPM_P2
2021/10/01 00:00:30;;;;;;;54.85;37.53;;;;;;;9.27;91.00;101539.06;1718501;82;27418;-58
2021/10/01 00:02:59;;;;;;;64.95;37.88;;;;;;;9.34;91.07;101561.20;1718638;83;25541;-58
2021/10/01 00:05:29;;;;;;;58.40;37.83;;;;;;;9.34;91.07;101561.20;1718534;83;25653;-59
2021/10/01 00:07:55;;;;;;;;;;;;;;;9.24;91.15;101546.34;1721038;83;25612;-56
2021/10/01 00:10:27;;;;;;;56.35;36.13;;;;;;;9.22;91.08;101544.47;1718646;83;25637;-59
2021/10/01 00:12:54;;;;;;;62.53;39.20;;;;;;;9.20;90.90;101552.03;1718562;83;26914;-57
2021/10/01 00:15:23;;;;;;;55.03;36.93;;;;;;;9.18;90.96;101542.05;1718423;83;25816;-57
2021/10/01 00:17:50;;;;;;;55.50;36.15;;;;;;;9.17;90.84;101537.71;1718540;83;25448;-57
2021/10/01 00:20:19;;;;;;;57.30;37.98;;;;;;;9.17;91.09;101540.41;1720427;82;25540;-57
2021/10/01 00:22:46;;;;;;;55.20;36.40;;;;;;;9.14;90.78;101540.42;1760211;81;25480;-57
2021/10/01 00:25:14;;;;;;;61.33;36.70;;;;;;;9.13;90.69;101537.99;1760659;81;27320;-57
2021/10/01 00:27:41;;;;;;;55.40;35.20;;;;;;;9.11;90.56;101540.16;1760596;81;25705;-58
2021/10/01 00:30:10;;;;;;;50.70;34.70;;;;;;;9.06;90.35;101537.42;1760636;81;25659;-57
2021/10/01 00:32:39;;;;;;;60.03;37.80;;;;;;;9.04;90.58;101538.23;1760755;81;28700;-57
2021/10/01 00:35:07;;;;;;;57.95;35.92;;;;;;;9.01;90.45;101534.72;1760818;81;25523;-57
2021/10/01 00:37:36;;;;;;;54.70;35.33;;;;;;;8.96;90.28;101528.80;1760677;81;27340;-57
2021/10/01 00:40:06;;;;;;;54.80;35.20;;;;;;;8.92;90.15;101535.27;1760526;81;25568;-57
2021/10/01 00:42:33;;;;;;;53.92;34.85;;;;;;;8.86;89.65;101526.88;1760656;81;25481;-57
2021/10/01 00:45:00;;;;;;;53.02;33.83;;;;;;;8.82;89.61;101526.32;1760635;81;25623;-57
2021/10/01 00:47:27;;;;;;;52.40;35.05;;;;;;;8.76;89.50;101520.91;1760668;81;25633;-57
2021/10/01 00:49:54;;;;;;;51.25;33.85;;;;;;;8.70;89.41;101517.12;1760621;81;29584;-56
2021/10/01 00:52:21;;;;;;;56.13;34.55;;;;;;;8.65;89.44;101507.66;1760585;80;25664;-57
2021/10/01 00:54:49;;;;;;;52.05;33.85;;;;;;;8.58;89.14;101511.45;1760607;81;25598;-57
2021/10/01 00:57:16;;;;;;;51.85;34.70;;;;;;;8.54;88.96;101516.28;1760210;81;26275;-57
2021/10/01 00:59:43;;;;;;;49.95;33.08;;;;;;;8.48;88.81;101524.06;1760654;81;25660;-57
2021/10/01 01:02:10;;;;;;;55.05;33.08;;;;;;;8.42;88.72;101525.91;1760561;81;28111;-57
2021/10/01 01:04:43;;;;;;;52.55;34.05;;;;;;;8.37;88.67;101520.50;1760540;81;25486;-57
2021/10/01 01:07:33;;;;;;;54.95;33.55;;;;;;;8.32;88.42;101520.48;1760676;81;25523;-57
2021/10/01 01:10:43;;;;;;;50.43;33.00;;;;;;;8.25;88.62;101518.03;1760601;81;25872;-57
2021/10/01 01:13:14;;;;;;;57.70;33.98;;;;;;;8.19;88.70;101513.70;1760821;81;25714;-57
2021/10/01 01:15:55;;;;;;;53.58;33.60;;;;;;;8.11;88.91;101510.96;1667515;85;27395;-58
2021/10/01 01:18:32;;;;;;;55.28;34.60;;;;;;;8.07;88.99;101511.73;1666912;86;25551;-57
2021/10/01 01:21:01;;;;;;;52.43;34.03;;;;;;;8.01;88.81;101506.88;1643475;86;25657;-57
2021/10/01 01:24:24;;;;;;;58.25;33.50;;;;;;;7.93;88.85;101513.55;1666974;86;25619;-58
2021/10/01 01:27:08;;;;;;;53.45;32.50;;;;;;;7.89;88.82;101513.01;1666989;85;25605;-57
2021/10/01 01:29:55;;;;;;;51.90;34.18;;;;;;;7.80;89.14;101514.84;1664094;86;27402;-57
2021/10/01 01:32:25;;;;;;;54.93;35.48;;;;;;;7.76;90.19;101522.34;1634144;87;25609;-58
2021/10/01 01:34:55;;;;;;;;;;;;;;;7.72;90.31;101523.41;1603622;89;25660;-58
2021/10/01 01:37:54;;;;;;;55.95;34.90;;;;;;;7.69;90.47;101529.30;1601280;89;25773;-58
2021/10/01 01:40:28;;;;;;;57.25;33.98;;;;;;;7.65;90.68;101534.40;1634878;87;25624;-57
2021/10/01 01:42:59;;;;;;;85.10;36.15;;;;;;;7.61;90.92;101523.05;1601267;89;27384;-58
2021/10/01 01:45:26;;;;;;;64.25;34.98;;;;;;;7.59;90.95;101521.95;1634728;87;25608;-58
2021/10/01 01:47:55;;;;;;;125.33;37.42;;;;;;;7.57;91.04;101516.02;1601320;89;25624;-58
2021/10/01 01:50:23;;;;;;;84.37;34.33;;;;;;;7.56;91.12;101523.02;1634867;87;26209;-58
2021/10/01 01:52:53;;;;;;;78.90;34.95;;;;;;;7.55;91.33;101522.75;1605582;88;25717;-58
2021/10/01 01:55:21;;;;;;;62.90;34.45;;;;;;;7.54;91.36;101522.47;1592784;88;27386;-58
2021/10/01 01:57:51;;;;;;;73.83;33.67;;;;;;;7.53;91.48;101522.20;1592550;88;25683;-58
2021/10/01 02:00:19;;;;;;;84.17;35.08;;;;;;;7.51;91.35;101517.08;1613854;88;25616;-58
2021/10/01 02:02:48;;;;;;;89.77;33.48;;;;;;;7.50;91.41;101520.83;1613803;88;25661;-58
2021/10/01 02:05:15;;;;;;;93.03;33.88;;;;;;;7.46;91.50;101519.73;1614104;88;33143;-58
2021/10/01 02:07:44;;;;;;;79.17;33.83;;;;;;;7.48;91.52;101523.77;1661439;85;27337;-58
2021/10/01 02:10:14;;;;;;;62.13;34.03;;;;;;;7.48;91.45;101523.77;1749071;81;25634;-58
2021/10/01 02:12:45;;;;;;;63.28;32.55;;;;;;;7.47;91.23;101519.99;1762517;81;25647;-58
2021/10/01 02:15:13;;;;;;;50.88;31.73;;;;;;;7.44;91.07;101515.95;1721236;83;25627;-58
2021/10/01 02:17:43;;;;;;;52.33;30.72;;;;;;;7.43;90.83;101522.94;1718468;83;25543;-58
2021/10/01 02:20:12;;;;;;;47.03;29.70;;;;;;;7.39;90.65;101517.25;1688080;83;27400;-58
2021/10/01 02:22:39;;;;;;;48.87;30.73;;;;;;;7.37;90.51;101527.47;1718591;83;25658;-58
2021/10/01 02:25:07;;;;;;;44.55;29.15;;;;;;;7.33;90.52;101524.20;1688059;85;25709;-58
2021/10/01 02:27:46;;;;;;;43.30;29.02;;;;;;;7.32;90.28;101530.64;1718406;83;25650;-58
2021/10/01 02:30:17;;;;;;;44.05;27.67;;;;;;;7.30;90.06;101528.20;1687886;85;25749;-58
2021/10/01 02:32:55;;;;;;;56.13;26.33;;;;;;;7.27;90.01;101527.36;1688122;85;29451;-58
2021/10/01 02:35:22;;;;;;;46.58;26.33;;;;;;;7.24;90.09;101519.83;1726115;83;25653;-58
2021/10/01 02:37:49;;;;;;;53.90;26.73;;;;;;;7.20;90.05;101522.22;1752002;81;25608;-58
2021/10/01 02:40:17;;;;;;;49.85;25.05;;;;;;;7.17;90.05;101526.76;1751905;81;25707;-57
2021/10/01 02:42:43;;;;;;;39.03;24.92;;;;;;;7.15;90.12;101537.48;1718429;83;25520;-57
2021/10/01 02:45:11;;;;;;;42.10;24.60;;;;;;;7.11;89.92;101531.80;1718473;83;27341;-57
2021/10/01 02:47:40;;;;;;;71.30;24.70;;;;;;;7.09;89.99;101533.95;1688042;85;25692;-57
2021/10/01 02:50:15;;;;;;;64.25;24.92;;;;;;;7.05;89.79;101537.68;1688225;85;25465;-57
2021/10/01 02:53:11;;;;;;;46.02;23.83;;;;;;;7.04;90.03;101540.62;1726174;83;25658;-57
2021/10/01 02:55:48;;;;;;;45.40;23.02;;;;;;;7.00;90.00;101537.63;1726182;83;25593;-57
2021/10/01 02:58:40;;;;;;;34.43;21.68;;;;;;;6.97;89.99;101544.06;1726163;83;27315;-58
2021/10/01 03:01:11;;;;;;;58.48;24.32;;;;;;;6.93;90.03;101542.41;1751635;81;27409;-59
2021/10/01 03:03:44;;;;;;;51.00;23.47;;;;;;;6.88;90.05;101547.73;1752024;81;25640;-56
2021/10/01 03:06:13;;;;;;;41.70;23.52;;;;;;;6.84;89.98;101556.02;1718297;82;25701;-56
2021/10/01 03:08:40;;;;;;;39.80;23.93;;;;;;;6.79;90.14;101556.77;1718805;83;25681;-59
2021/10/01 03:11:11;;;;;;;48.58;23.30;;;;;;;6.75;90.14;101552.97;1689712;84;27363;-59
2021/10/01 03:13:43;;;;;;;37.45;22.90;;;;;;;6.72;90.05;101557.50;1718435;83;25508;-59
2021/10/01 03:16:11;;;;;;;36.38;22.62;;;;;;;6.67;90.16;101554.22;1718593;83;25469;-59
2021/10/01 03:18:39;;;;;;;50.20;22.30;;;;;;;6.66;90.33;101551.27;1688203;85;25604;-59
2021/10/01 03:21:07;;;;;;;44.27;22.13;;;;;;;6.64;90.30;101558.77;1730419;82;25732;-59
2021/10/01 03:23:34;;;;;;;51.30;22.73;;;;;;;6.60;90.20;101550.11;1739120;82;27324;-59
2021/10/01 03:26:02;;;;;;;48.50;20.77;;;;;;;6.56;90.31;101554.38;1760505;81;25628;-58
2021/10/01 03:28:28;;;;;;;36.53;22.65;;;;;;;6.54;90.46;101547.36;1760706;81;25636;-56
2021/10/01 03:30:55;;;;;;;58.73;21.50;;;;;;;6.53;90.64;101544.38;1760636;81;25594;-58
2021/10/01 03:33:27;;;;;;;60.03;21.87;;;;;;;6.56;90.71;101547.66;1760749;81;25684;-59
2021/10/01 03:35:55;;;;;;;50.25;20.62;;;;;;;6.53;90.86;101551.10;1760571;81;27528;-59
2021/10/01 03:38:25;;;;;;;44.23;21.30;;;;;;;6.51;90.73;101547.86;1760849;81;25716;-56
2021/10/01 03:40:53;;;;;;;40.33;20.12;;;;;;;6.50;90.71;101545.42;1760615;81;25652;-56
2021/10/01 03:43:24;;;;;;;45.33;19.35;;;;;;;6.50;90.76;101550.79;1726133;81;26249;-56
2021/10/01 03:45:52;;;;;;;39.58;18.92;;;;;;;6.46;90.87;101551.02;1760744;81;25537;-56
2021/10/01 03:48:21;;;;;;;39.30;18.52;;;;;;;6.43;90.81;101557.70;1736240;82;27327;-56
2021/10/01 03:50:47;;;;;;;40.35;19.73;;;;;;;6.42;90.98;101559.29;1731634;82;25707;-56
2021/10/01 03:53:13;;;;;;;43.90;18.32;;;;;;;6.42;91.21;101570.88;1731772;81;25452;-56
2021/10/01 03:55:40;;;;;;;36.90;17.60;;;;;;;6.43;91.33;101560.39;1719517;83;25629;-58
2021/10/01 03:58:07;;;;;;;50.50;19.17;;;;;;;6.43;91.22;101562.27;1719542;83;25727;-58
2021/10/01 04:00:35;;;;;;;41.73;17.45;;;;;;;6.41;91.32;101559.03;1719543;83;27431;-56
2021/10/01 04:03:01;;;;;;;71.92;17.67;;;;;;;6.43;91.47;101564.42;1719379;83;27188;-58
2021/10/01 04:05:28;;;;;;;53.87;18.45;;;;;;;6.43;91.44;101560.39;1719543;83;25632;-58
2021/10/01 04:07:55;;;;;;;57.55;17.85;;;;;;;6.43;91.52;101560.39;1719486;83;25672;-58
2021/10/01 04:10:22;;;;;;;57.65;17.95;;;;;;;6.44;91.56;101563.91;1719506;83;25676;-58
2021/10/01 04:12:49;;;;;;;40.30;17.30;;;;;;;6.42;91.47;101556.60;1719541;83;27397;-59
2021/10/01 04:15:16;;;;;;;72.08;17.55;;;;;;;6.42;91.41;101565.50;1719448;83;25606;-58
2021/10/01 04:17:42;;;;;;;37.67;17.07;;;;;;;6.43;91.57;101569.80;1719500;83;25681;-58
2021/10/01 04:20:10;;;;;;;53.08;15.68;;;;;;;6.43;91.55;101567.65;1718818;82;25629;-59
2021/10/01 04:22:36;;;;;;;55.15;17.15;;;;;;;6.42;91.44;101571.38;1706759;84;25644;-57
2021/10/01 04:25:04;;;;;;;62.70;16.27;;;;;;;6.42;91.50;101567.35;1707885;84;26975;-56
2021/10/01 04:27:31;;;;;;;95.77;17.67;;;;;;;6.41;91.47;101564.41;1725281;81;25655;-57
2021/10/01 04:30:00;;;;;;;107.80;17.27;;;;;;;6.38;91.46;101572.95;1741956;82;25464;-57
2021/10/01 04:32:26;;;;;;;104.20;16.50;;;;;;;6.35;91.50;101573.74;1741954;82;25671;-57
2021/10/01 04:35:00;;;;;;;62.88;15.72;;;;;;;6.32;91.51;101574.77;1748430;81;25653;-57
2021/10/01 04:37:21;;;;;;;104.17;16.42;;;;;;;6.32;91.73;101580.95;1753014;81;29550;-57
2021/10/01 04:39:48;;;;;;;72.95;16.17;;;;;;;6.30;91.61;101572.84;1754042;81;25836;-57
2021/10/01 04:42:15;;;;;;;54.77;15.15;;;;;;;6.27;91.59;101580.08;1754112;81;25471;-57
2021/10/01 04:44:41;;;;;;;34.40;14.55;;;;;;;6.26;91.63;101582.47;1754139;81;25705;-57
2021/10/01 04:47:08;;;;;;;30.95;13.48;;;;;;;6.24;91.51;101587.29;1754207;81;25461;-57
2021/10/01 04:49:35;;;;;;;29.57;14.23;;;;;;;6.22;91.66;101589.42;1754179;81;28119;-56
2021/10/01 04:52:03;;;;;;;26.50;12.78;;;;;;;6.23;91.90;101591.86;1754058;81;25602;-58
2021/10/01 04:54:30;;;;;;;35.98;12.90;;;;;;;6.22;91.76;101602.85;1754173;81;25535;-57
2021/10/01 04:56:58;;;;;;;35.88;12.90;;;;;;;6.19;92.00;101600.11;1754130;81;26242;-57
2021/10/01 04:59:25;;;;;;;23.10;13.10;;;;;;;6.17;91.89;101595.52;1754248;81;25644;-57
2021/10/01 05:01:55;;;;;;;25.88;13.25;;;;;;;6.14;91.97;101595.47;1754153;81;28043;-57
2021/10/01 05:04:26;;;;;;;36.75;12.50;;;;;;;6.15;92.20;101593.63;1754046;81;25693;-58
2021/10/01 05:06:53;;;;;;;39.63;13.40;;;;;;;6.16;92.28;101592.03;1754156;81;25443;-58
2021/10/01 05:09:19;;;;;;;39.35;13.48;;;;;;;6.18;92.53;101591.79;1754094;81;25633;-58
2021/10/01 05:11:47;;;;;;;37.40;13.98;;;;;;;6.23;92.90;101590.52;1754212;81;25514;-58
2021/10/01 05:14:14;;;;;;;46.92;13.30;;;;;;;6.26;93.07;101590.00;1754130;81;27344;-57
2021/10/01 05:16:44;;;;;;;42.67;14.35;;;;;;;6.31;93.26;101589.26;1754072;81;25696;-57
2021/10/01 05:19:11;;;;;;;50.28;14.75;;;;;;;6.33;93.34;101589.82;1754177;81;25501;-57
2021/10/01 05:21:40;;;;;;;37.20;13.90;;;;;;;6.39;93.65;101587.49;1752788;80;25915;-57
2021/10/01 05:24:08;;;;;;;61.33;15.58;;;;;;;6.44;93.66;101588.09;1752192;81;25446;-56
2021/10/01 05:26:37;;;;;;;93.27;17.85;;;;;;;6.47;93.93;101597.81;1751987;81;27332;-59
2021/10/01 05:29:04;;;;;;;61.70;17.37;;;;;;;6.52;93.94;101601.08;1752255;81;25632;-58
2021/10/01 05:31:33;;;;;;;69.72;17.32;;;;;;;6.56;94.09;101600.08;1751999;81;25458;-56
2021/10/01 05:34:00;;;;;;;83.50;19.37;;;;;;;6.60;94.26;101603.34;1752116;81;34843;-58
2021/10/01 05:36:27;;;;;;;74.42;17.42;;;;;;;6.66;94.49;101602.89;1752035;81;25506;-56
2021/10/01 05:38:54;;;;;;;80.62;19.77;;;;;;;6.73;94.70;101603.51;1751954;81;27309;-56
2021/10/01 05:41:21;;;;;;;45.03;18.07;;;;;;;6.80;94.85;101600.09;1751893;81;25645;-56
2021/10/01 05:43:48;;;;;;;85.05;20.37;;;;;;;6.87;95.04;101607.42;1751950;81;25684;-58
2021/10/01 05:46:17;;;;;;;52.67;19.35;;;;;;;6.94;95.11;101597.81;1751952;81;26268;-56
2021/10/01 05:48:50;;;;;;;58.52;19.50;;;;;;;6.99;95.11;101601.91;1752169;81;25678;-56
2021/10/01 05:51:14;;;;;;;51.25;19.52;;;;;;;7.07;95.34;101601.46;1751568;81;27338;-57
2021/10/01 05:56:11;;;;;;;107.65;19.98;;;;;;;7.23;95.41;101600.27;1752131;81;25470;-56
2021/10/01 05:58:41;;;;;;;61.83;19.57;;;;;;;7.29;95.32;101597.92;1751984;81;25717;-56
2021/10/01 06:01:10;;;;;;;71.70;20.55;;;;;;;7.35;95.30;101605.50;1752127;81;25471;-56
2021/10/01 06:03:37;;;;;;;62.83;20.05;;;;;;;7.38;95.15;101601.76;1752118;81;27325;-56
2021/10/01 06:06:04;;;;;;;123.28;20.85;;;;;;;7.45;95.30;101601.55;1751917;81;25654;-56
2021/10/01 06:08:31;;;;;;;89.55;20.72;;;;;;;7.49;95.34;101601.30;1751982;81;25691;-57
2021/10/01 06:10:59;;;;;;;64.15;20.15;;;;;;;7.56;95.54;101601.93;1706417;83;26268;-57
2021/10/01 06:13:26;;;;;;;139.00;22.95;;;;;;;7.64;95.53;101604.67;1718454;83;25493;-57
2021/10/01 06:15:55;;;;;;;100.23;21.43;;;;;;;7.68;95.39;101601.76;1688348;85;25832;-56
2021/10/01 06:18:22;;;;;;;145.02;22.22;;;;;;;7.70;94.97;101598.81;1688019;85;25511;-59
2021/10/01 06:20:49;;;;;;;105.03;22.70;;;;;;;7.71;94.74;101598.52;1694358;83;25297;-58
2021/10/01 06:23:17;;;;;;;88.05;21.35;;;;;;;7.74;94.90;101603.95;1718407;82;25675;-58
2021/10/01 06:25:45;;;;;;;127.35;22.45;;;;;;;7.74;94.64;101598.02;1689653;84;25543;-58
2021/10/01 06:28:13;;;;;;;47.78;19.87;;;;;;;7.75;94.64;101597.50;1718437;83;27344;-58
2021/10/01 06:30:41;;;;;;;94.00;20.82;;;;;;;7.82;95.25;101602.93;1688022;85;25716;-58
2021/10/01 06:33:08;;;;;;;50.98;22.55;;;;;;;7.92;95.88;101605.44;1718430;83;25527;-58
2021/10/01 06:35:34;;;;;;;57.30;21.17;;;;;;;7.99;96.01;101601.98;1688048;85;25657;-57
2021/10/01 06:38:01;;;;;;;113.37;22.30;;;;;;;8.09;96.03;101601.21;1718493;83;25745;-58
2021/10/01 06:40:27;;;;;;;110.90;22.45;;;;;;;8.10;95.38;101602.84;1688233;85;27492;-58
2021/10/01 06:42:56;;;;;;;56.37;21.60;;;;;;;8.09;94.92;101611.48;1688136;85;25483;-58
2021/10/01 06:45:28;;;;;;;61.58;24.15;;;;;;;8.14;95.51;101609.33;1718559;83;25713;-58
2021/10/01 08:20:50;;;;;;;47.03;29.10;;;;;;;10.29;93.75;101605.69;1755264;81;25452;-60
2021/10/01 08:23:17;;;;;;;49.73;30.50;;;;;;;10.33;93.94;101605.17;1754102;81;25617;-60
2021/10/01 08:25:44;;;;;;;52.40;30.95;;;;;;;10.39;94.31;101610.84;1754223;81;25534;-61
2021/10/01 08:28:11;;;;;;;49.10;31.62;;;;;;;10.47;94.90;101608.91;1754275;81;27435;-60
2021/10/01 08:30:38;;;;;;;48.55;29.80;;;;;;;10.57;95.02;101604.01;1715348;83;25575;-60
2021/10/01 08:33:05;;;;;;;51.42;32.03;;;;;;;10.68;94.94;101611.56;1708496;83;25682;-60
2021/10/01 08:35:32;;;;;;;45.90;28.77;;;;;;;10.75;95.26;101604.75;1708210;84;25656;-60
2021/10/01 08:38:00;;;;;;;46.48;29.32;;;;;;;10.87;95.16;101613.89;1708246;84;25467;-60
2021/10/01 08:40:27;;;;;;;43.45;27.45;;;;;;;10.86;93.34;101606.84;1715032;83;27341;-59
2021/10/01 08:42:55;;;;;;;47.38;28.17;;;;;;;10.85;92.96;101607.95;1715275;83;25889;-59
2021/10/01 08:45:26;;;;;;;43.17;29.30;;;;;;;10.84;92.39;101605.80;1715409;83;25693;-61
2021/10/01 08:47:57;;;;;;;45.73;28.65;;;;;;;10.81;92.41;101610.41;1685183;85;25629;-61
2021/10/01 08:50:22;;;;;;;44.75;29.05;;;;;;;10.81;92.85;101605.52;1715213;82;25516;-61
2021/10/01 08:52:51;;;;;;;50.58;29.52;;;;;;;10.91;93.58;101603.31;1685192;85;27351;-60
2021/10/01 08:55:20;;;;;;;46.53;28.75;;;;;;;10.98;93.69;101608.70;1685081;85;25532;-59
2021/10/01 08:57:46;;;;;;;49.43;29.87;;;;;;;11.05;93.73;101608.39;1715601;83;25461;-57
2021/10/01 09:00:17;;;;;;;42.88;28.32;;;;;;;11.13;93.55;101612.39;1715369;83;25611;-58
2021/10/01 09:02:46;;;;;;;51.40;29.67;;;;;;;11.15;92.90;101611.04;1715298;83;25626;-57
2021/10/01 09:05:14;;;;;;;52.85;31.75;;;;;;;11.26;93.85;101614.48;1715548;83;27322;-57
2021/10/01 09:07:41;;;;;;;49.18;28.83;;;;;;;11.32;92.47;101615.24;1715308;83;25712;-58
2021/10/01 09:10:12;;;;;;;43.20;27.05;;;;;;;11.37;92.47;101612.50;1715375;83;25475;-57
2021/10/01 09:12:39;;;;;;;44.48;28.65;;;;;;;11.50;92.33;101608.36;1739184;82;25603;-57
2021/10/01 09:15:09;;;;;;;46.40;29.23;;;;;;;11.57;92.09;101605.57;1744797;81;25632;-57
2021/10/01 09:17:36;;;;;;;46.98;29.32;;;;;;;11.64;91.36;101603.09;1754288;81;27351;-56
2021/10/01 09:20:05;;;;;;;46.80;29.25;;;;;;;11.61;90.65;101606.36;1754074;81;25633;-59
2021/10/01 09:22:36;;;;;;;53.73;31.73;;;;;;;11.66;91.75;101603.61;1752689;81;25448;-59
2021/10/01 09:25:24;;;;;;;43.17;29.25;;;;;;;11.88;92.76;101598.52;1741864;81;27816;-57
2021/10/01 09:28:00;;;;;;;49.05;30.77;;;;;;;12.19;93.42;101605.05;1741970;81;25486;-59
2021/10/01 09:30:27;;;;;;;40.10;27.13;;;;;;;12.33;91.90;101599.19;1741938;82;27393;-58
2021/10/01 09:33:11;;;;;;;47.60;27.77;;;;;;;12.66;92.76;101599.33;1741844;81;25636;-59
2021/10/01 09:35:41;;;;;;;45.00;28.65;;;;;;;12.70;89.89;101605.80;1741428;82;25624;-59
2021/10/01 09:38:10;;;;;;;;;;;;;;;12.62;88.96;101602.38;1744395;81;25658;-59
2021/10/01 09:40:37;;;;;;;;;;;;;;;12.67;89.45;101600.95;1744530;81;25667;-58
2021/10/01 09:43:05;;;;;;;49.73;30.10;;;;;;;12.68;89.00;101596.33;1741879;82;27324;-59
2021/10/01 09:45:33;;;;;;;45.78;29.05;;;;;;;12.92;92.41;101596.83;1741969;82;25648;-59
2021/10/01 09:48:06;;;;;;;39.40;26.77;;;;;;;13.52;92.32;101598.94;1741911;82;25518;-59
2021/10/01 09:50:35;;;;;;;45.20;27.58;;;;;;;13.68;90.17;101595.44;1741907;81;25664;-59
2021/10/01 09:53:06;;;;;;;52.80;27.52;;;;;;;13.91;89.08;101601.81;1742074;82;25474;-59
2021/10/01 09:55:38;;;;;;;39.67;25.10;;;;;;;14.08;88.01;101598.52;1741558;82;27384;-60
2021/10/01 09:58:17;;;;;;;35.08;22.75;;;;;;;14.37;86.90;101601.77;1741866;81;25689;-60
2021/10/01 10:00:53;;;;;;;;;;;;;;;14.85;87.52;101605.19;1744477;81;25707;-60
2021/10/01 10:03:29;;;;;;;33.28;22.95;;;;;;;15.20;86.17;101610.38;1741854;81;25612;-58
2021/10/01 10:06:10;;;;;;;33.33;23.47;;;;;;;15.15;84.24;101608.33;1741928;81;25642;-58
2021/10/01 10:08:42;;;;;;;33.67;22.82;;;;;;;15.27;85.40;101599.05;1741860;82;27325;-58
2021/10/01 10:11:19;;;;;;;28.67;21.00;;;;;;;15.46;84.12;101603.77;1741807;81;25670;-59
2021/10/01 10:13:53;;;;;;;31.90;22.35;;;;;;;15.72;84.01;101601.77;1742004;82;25685;-58
2021/10/01 10:16:29;;;;;;;28.95;21.25;;;;;;;16.29;83.84;101601.09;1742001;82;25606;-59
2021/10/01 10:19:03;;;;;;;25.32;18.90;;;;;;;16.76;83.40;101599.22;1742093;81;25743;-59
2021/10/01 10:21:31;;;;;;;26.68;19.30;;;;;;;17.36;81.18;101599.81;1742071;82;27971;-59
2021/10/01 10:23:58;;;;;;;25.30;19.50;;;;;;;17.55;78.86;101598.12;1741834;81;25667;-59
2021/10/01 10:26:26;;;;;;;23.85;18.45;;;;;;;17.36;77.59;101593.55;1742066;82;25478;-59
2021/10/01 10:28:57;;;;;;;20.30;16.80;;;;;;;17.61;79.08;101596.59;1742018;82;25665;-59
2021/10/01 10:31:31;;;;;;;23.70;17.35;;;;;;;18.05;75.31;101593.19;1742109;82;25463;-59
2021/10/01 10:33:59;;;;;;;21.60;17.42;;;;;;;18.46;77.29;101595.81;1741957;81;27297;-59
2021/10/01 10:36:47;;;;;;;23.07;17.52;;;;;;;18.60;75.42;101590.09;1742124;82;25485;-60
2021/10/01 10:39:32;;;;;;;23.45;17.67;;;;;;;18.59;75.00;101576.14;1742046;82;25660;-57
2021/10/01 10:42:07;;;;;;;19.95;15.08;;;;;;;19.16;76.04;101583.02;1741545;82;25616;-63
2021/10/01 10:44:46;;;;;;;19.12;15.48;;;;;;;19.74;73.85;101585.83;1742135;82;25530;-62
2021/10/01 10:47:37;;;;;;;16.35;14.10;;;;;;;20.11;74.17;101586.70;1742006;81;27330;-61
2021/10/01 10:50:27;;;;;;;17.55;14.05;;;;;;;20.47;72.40;101583.72;1741915;82;25439;-63
2021/10/01 10:53:14;;;;;;;20.20;13.10;;;;;;;20.71;71.41;101576.03;1742048;81;25502;-65
2021/10/01 10:55:50;;;;;;;15.68;12.13;;;;;;;21.14;69.41;101575.67;1742085;81;25616;-61
2021/10/01 10:58:32;;;;;;;15.65;12.03;;;;;;;20.83;66.63;101564.78;1742079;82;25651;-62
2021/10/01 11:01:23;;;;;;;17.70;13.20;;;;;;;20.87;67.51;101570.62;1742051;81;27907;-62
2021/10/01 11:04:03;;;;;;;16.45;12.58;;;;;;;21.00;67.60;101565.87;1741996;82;25633;-62
2021/10/01 11:06:35;;;;;;;17.20;11.70;;;;;;;21.34;67.45;101562.28;1719142;83;25493;-63
2021/10/01 11:09:24;;;;;;;14.95;11.05;;;;;;;21.82;68.00;101559.62;1718571;82;25691;-65
2021/10/01 11:11:54;;;;;;;16.20;13.22;;;;;;;22.18;65.75;101554.38;1719242;83;25510;-62
2021/10/01 11:14:22;;;;;;;16.23;12.30;;;;;;;22.16;63.62;101556.70;1719048;82;26650;-61
2021/10/01 11:17:02;;;;;;;13.10;10.23;;;;;;;22.10;63.39;101550.45;1719162;83;25663;-63
2021/10/01 11:19:39;;;;;;;13.15;9.98;;;;;;;22.26;62.91;101544.34;1719211;83;25580;-62
2021/10/01 11:22:32;;;;;;;13.03;9.08;;;;;;;22.20;60.92;101543.01;1719081;83;25714;-60
2021/10/01 11:25:11;;;;;;;14.60;9.05;;;;;;;22.58;61.35;101542.92;1719784;83;26040;-60
2021/10/01 11:27:55;;;;;;;11.68;9.25;;;;;;;22.93;60.98;101532.39;1720161;83;27305;-61
2021/10/01 11:30:24;;;;;;;11.43;9.43;;;;;;;23.36;60.04;101533.27;1695318;84;25762;-60
2021/10/01 11:32:52;;;;;;;12.53;9.38;;;;;;;23.48;59.08;101533.08;1695482;84;25552;-61
2021/10/01 11:35:20;;;;;;;13.53;9.65;;;;;;;23.42;56.77;101538.67;1695440;84;25606;-64
2021/10/01 11:37:50;;;;;;;14.60;10.17;;;;;;;23.44;57.90;101533.58;1695637;84;25740;-61
2021/10/01 11:40:26;;;;;;;12.55;9.75;;;;;;;23.96;57.37;101544.36;1695427;84;28873;-64
2021/10/01 11:42:58;;;;;;;13.43;10.08;;;;;;;24.31;57.43;101526.70;1685651;84;25771;-63
2021/10/01 11:45:32;;;;;;;13.95;10.00;;;;;;;24.76;56.01;101524.36;1666230;86;25735;-61
2021/10/01 11:48:08;;;;;;;13.28;8.83;;;;;;;24.56;54.48;101520.16;1666154;86;26327;-60
2021/10/01 11:50:40;;;;;;;13.68;8.40;;;;;;;24.46;53.52;101528.48;1666217;86;25708;-62
2021/10/01 11:53:22;;;;;;;14.60;9.53;;;;;;;23.94;51.67;101535.05;1666212;86;27331;-60
2021/10/01 11:56:01;;;;;;;12.07;8.65;;;;;;;23.21;51.08;101528.05;1666044;86;25783;-58
2021/10/01 11:58:29;;;;;;;;;;;;;;;22.49;51.13;101522.45;1668633;86;25505;-59
2021/10/01 12:01:10;;;;;;;13.03;8.23;;;;;;;21.82;50.70;101522.44;1666141;86;25617;-57
2021/10/01 12:03:53;;;;;;;13.75;10.72;;;;;;;21.40;52.96;101519.61;1650619;86;25537;-60
2021/10/01 12:06:27;;;;;;;11.20;9.35;;;;;;;20.92;52.46;101514.55;1649997;86;27332;-60
2021/10/01 12:09:05;;;;;;;14.10;9.78;;;;;;;20.50;53.61;101510.20;1729286;82;25706;-59
2021/10/01 12:11:37;;;;;;;13.55;9.98;;;;;;;20.16;54.03;101512.90;1729687;82;25471;-61
2021/10/01 12:14:18;;;;;;;17.57;10.90;;;;;;;19.77;54.37;101515.19;1729766;82;25708;-60
2021/10/01 12:16:59;;;;;;;13.65;10.35;;;;;;;19.37;55.17;101515.77;1694739;84;25551;-60
2021/10/01 12:19:28;;;;;;;13.15;9.95;;;;;;;19.04;55.83;101508.36;1690136;84;27324;-60
2021/10/01 12:22:14;;;;;;;14.65;10.03;;;;;;;18.85;56.61;101511.02;1694705;84;25509;-60
2021/10/01 12:24:53;;;;;;;17.45;11.40;;;;;;;18.70;57.06;101504.75;1701577;82;25455;-59
2021/10/01 12:27:42;;;;;;;16.05;12.40;;;;;;;18.50;57.19;101504.18;1626331;87;25767;-59
2021/10/01 12:30:09;;;;;;;18.35;11.30;;;;;;;18.33;57.50;101500.41;1680702;85;25516;-60
2021/10/01 12:32:37;;;;;;;17.52;12.50;;;;;;;18.11;58.16;101491.92;1687945;85;27328;-59
2021/10/01 12:35:06;;;;;;;16.75;11.88;;;;;;;18.02;58.59;101500.19;1687853;85;25507;-59
2021/10/01 12:37:39;;;;;;;;;;;;;;;17.97;59.29;101494.11;1690478;85;25740;-59
2021/10/01 12:40:07;;;;;;;14.55;11.30;;;;;;;17.88;59.53;101488.11;1664968;85;25722;-59
2021/10/01 12:42:39;;;;;;;15.50;11.20;;;;;;;17.96;59.89;101485.66;1688215;85;25563;-59
2021/10/01 12:45:16;;;;;;;17.55;11.63;;;;;;;17.96;59.56;101487.02;1687916;85;27405;-59
2021/10/01 12:47:45;;;;;;;14.58;11.28;;;;;;;17.88;59.36;101482.64;1687783;85;25729;-58
2021/10/01 12:50:16;;;;;;;16.05;11.43;;;;;;;17.81;59.91;101472.75;1687970;85;25568;-59
2021/10/01 12:52:48;;;;;;;18.10;12.53;;;;;;;17.76;59.44;101472.94;1687948;85;25768;-59
2021/10/01 12:55:16;;;;;;;16.40;11.53;;;;;;;17.73;59.85;101465.38;1687084;84;25744;-59
2021/10/01 12:57:47;;;;;;;15.85;11.03;;;;;;;17.72;60.15;101463.76;1687979;85;27531;-59
2021/10/01 13:00:33;;;;;;;14.05;10.88;;;;;;;17.89;60.63;101456.06;1687994;85;25726;-59
2021/10/01 13:03:07;;;;;;;12.18;9.83;;;;;;;18.11;60.18;101464.55;1669918;85;26027;-59
2021/10/01 13:05:40;;;;;;;11.50;9.55;;;;;;;18.27;60.15;101459.31;1673045;85;26293;-59
2021/10/01 13:08:13;;;;;;;14.30;9.15;;;;;;;18.34;59.26;101460.13;1654408;85;25720;-60
2021/10/01 13:10:50;;;;;;;11.43;9.00;;;;;;;18.42;59.26;101453.78;1708730;83;27520;-58